createdAt,value
2023-05-02T00:02:24.491Z,12.94
2023-05-02T00:04:52.319Z,12.93
2023-05-02T00:07:20.695Z,12.85
2023-05-02T00:09:48.037Z,12.86
2023-05-02T00:12:15.181Z,12.83
2023-05-02T00:14:42.396Z,12.56
2023-05-02T00:17:09.820Z,12.41
2023-05-02T00:19:40.294Z,12.19
2023-05-02T00:22:07.706Z,12.21
2023-05-02T00:24:34.966Z,12.11
2023-05-02T00:27:02.373Z,12.13
2023-05-02T00:29:29.950Z,12.08
2023-05-02T00:31:58.098Z,12.16
2023-05-02T00:34:31.367Z,12.03
2023-05-02T00:36:59.177Z,12.00
2023-05-02T00:39:26.477Z,12.11
2023-05-02T00:42:00.773Z,12.22
2023-05-02T00:44:28.774Z,12.10
2023-05-02T00:46:56.946Z,12.02
2023-05-02T00:49:25.073Z,11.80
2023-05-02T00:51:53.698Z,11.93
2023-05-02T00:54:21.087Z,11.97
2023-05-02T00:56:48.661Z,11.98
2023-05-02T00:59:16.932Z,11.90
2023-05-02T01:02:30.641Z,11.96
2023-05-02T01:05:28.512Z,11.97
2023-05-02T01:08:33.907Z,12.04
2023-05-02T01:11:04.965Z,12.00
2023-05-02T01:13:37.931Z,12.04
2023-05-02T01:16:07.937Z,11.94
2023-05-02T01:18:39.563Z,11.81
2023-05-02T01:21:11.721Z,11.81
2023-05-02T01:24:12.712Z,11.78
2023-05-02T01:27:07.714Z,11.77
2023-05-02T01:29:37.450Z,11.81
2023-05-02T01:32:06.653Z,11.88
2023-05-02T01:34:36.310Z,12.09
2023-05-02T01:37:06.113Z,12.23
2023-05-02T01:39:35.193Z,12.21
2023-05-02T01:42:05.123Z,12.14
2023-05-02T01:44:36.020Z,11.89
2023-05-02T01:47:07.080Z,11.84
2023-05-02T01:49:35.758Z,11.75
2023-05-02T01:52:07.792Z,11.75
2023-05-02T01:54:37.260Z,12.18
2023-05-02T01:57:08.794Z,12.46
2023-05-02T01:59:40.644Z,12.82
2023-05-02T02:02:09.154Z,12.88
2023-05-02T02:04:39.859Z,12.81
2023-05-02T02:07:14.073Z,12.79
2023-05-02T02:09:41.830Z,12.65
2023-05-02T02:12:16.117Z,12.40
2023-05-02T02:14:57.036Z,12.19
2023-05-02T02:17:57.946Z,12.36
2023-05-02T02:20:28.402Z,12.27
2023-05-02T02:22:57.829Z,12.32
2023-05-02T02:25:27.030Z,12.26
2023-05-02T02:27:54.708Z,12.07
2023-05-02T02:30:22.077Z,11.96
2023-05-02T02:32:49.349Z,11.81
2023-05-02T02:35:16.649Z,11.95
2023-05-02T02:38:14.506Z,11.90
2023-05-02T02:40:55.288Z,12.02
2023-05-02T02:43:36.366Z,12.18
2023-05-02T02:46:43.096Z,12.00
2023-05-02T02:49:59.608Z,11.91
2023-05-02T02:52:36.135Z,11.91
2023-05-02T02:55:32.666Z,12.10
2023-05-02T02:58:13.202Z,12.35
2023-05-02T03:00:41.742Z,12.24
2023-05-02T03:03:10.697Z,12.31
2023-05-02T03:05:38.558Z,12.24
2023-05-02T03:08:06.779Z,12.26
2023-05-02T03:10:34.192Z,12.16
2023-05-02T03:13:01.660Z,12.01
2023-05-02T03:15:45.228Z,11.97
2023-05-02T03:18:13.181Z,12.18
2023-05-02T03:20:42.218Z,12.00
2023-05-02T03:23:10.622Z,11.89
2023-05-02T03:25:39.898Z,11.88
2023-05-02T03:28:12.370Z,11.83
2023-05-02T03:30:42.100Z,11.89
2023-05-02T03:33:09.728Z,11.83
2023-05-02T03:35:38.312Z,11.92
2023-05-02T03:38:05.773Z,12.13
2023-05-02T03:40:33.019Z,12.32
2023-05-02T03:43:00.774Z,12.49
2023-05-02T03:45:32.150Z,12.37
2023-05-02T03:48:00.503Z,12.20
2023-05-02T03:50:28.010Z,12.29
2023-05-02T03:52:56.275Z,12.45
2023-05-02T03:55:32.342Z,12.62
2023-05-02T03:58:00.810Z,12.58
2023-05-02T04:00:28.222Z,12.68
2023-05-02T04:03:03.002Z,12.75
2023-05-02T04:05:32.035Z,12.60
2023-05-02T04:07:59.368Z,12.73
2023-05-02T04:10:26.885Z,12.85
2023-05-02T04:12:57.983Z,13.07
2023-05-02T04:15:26.323Z,13.18
2023-05-02T04:17:54.642Z,13.27
2023-05-02T04:20:22.064Z,13.44
2023-05-02T04:22:52.477Z,13.63
2023-05-02T04:25:22.109Z,13.80
2023-05-02T04:27:51.756Z,13.95
2023-05-02T04:30:22.195Z,13.92
2023-05-02T04:33:04.759Z,14.14
2023-05-02T04:35:35.823Z,14.12
2023-05-02T04:38:04.883Z,14.44
2023-05-02T04:40:33.572Z,14.34
2023-05-02T04:43:05.150Z,14.42
2023-05-02T04:45:40.734Z,14.65
2023-05-02T04:48:14.062Z,14.80
2023-05-02T04:50:41.352Z,15.12
2023-05-02T04:53:08.570Z,15.24
2023-05-02T04:55:36.279Z,15.37
2023-05-02T04:58:04.571Z,15.70
2023-05-02T05:00:33.353Z,16.04
2023-05-02T05:03:03.131Z,16.64
2023-05-02T05:05:30.490Z,17.02
2023-05-02T05:07:57.796Z,17.37
2023-05-02T05:10:27.462Z,17.74
2023-05-02T05:12:54.717Z,17.89
2023-05-02T05:15:24.160Z,17.65
2023-05-02T05:17:56.037Z,17.88
2023-05-02T05:20:23.572Z,18.06
2023-05-02T05:22:53.885Z,18.37
2023-05-02T05:25:22.497Z,18.76
2023-05-02T05:27:52.852Z,18.94
2023-05-02T05:30:20.915Z,19.14
2023-05-02T05:32:48.465Z,19.62
2023-05-02T05:35:15.868Z,20.30
2023-05-02T05:37:43.803Z,20.63
2023-05-02T05:40:13.987Z,20.44
2023-05-02T05:42:44.659Z,20.67
2023-05-02T05:45:19.807Z,20.77
2023-05-02T05:47:47.433Z,20.46
2023-05-02T05:50:14.804Z,20.55
2023-05-02T05:52:43.415Z,20.87
2023-05-02T05:55:11.276Z,21.41
2023-05-02T05:57:39.246Z,21.81
2023-05-02T06:00:08.453Z,22.10
2023-05-02T06:02:43.030Z,23.16
2023-05-02T06:05:17.407Z,23.90
2023-05-02T06:07:44.835Z,24.21
2023-05-02T06:10:12.382Z,24.07
2023-05-02T06:12:42.267Z,24.52
2023-05-02T06:15:11.135Z,24.17
2023-05-02T06:17:39.260Z,25.41
2023-05-02T06:20:07.917Z,25.65
2023-05-02T06:22:35.994Z,26.41
2023-05-02T06:25:05.284Z,26.73
2023-05-02T06:27:33.787Z,26.28
2023-05-02T06:30:01.542Z,26.06
2023-05-02T06:32:32.509Z,27.62
2023-05-02T06:34:59.830Z,28.16
2023-05-02T06:37:27.091Z,28.62
2023-05-02T06:39:54.416Z,29.22
2023-05-02T06:42:21.694Z,29.90
2023-05-02T06:44:49.102Z,30.27
2023-05-02T06:47:16.527Z,30.19
2023-05-02T06:49:43.955Z,28.33
2023-05-02T06:52:11.206Z,27.81
2023-05-02T06:54:39.600Z,29.07
2023-05-02T06:57:07.947Z,30.14
2023-05-02T06:59:35.293Z,30.10
2023-05-02T07:02:05.069Z,29.28
2023-05-02T07:04:32.789Z,30.60
2023-05-02T07:07:00.214Z,30.31
2023-05-02T07:09:27.425Z,30.42
2023-05-02T07:11:54.816Z,29.57
2023-05-02T07:14:22.089Z,29.90
2023-05-02T07:16:49.459Z,29.52
2023-05-02T07:19:16.766Z,29.52
2023-05-02T07:21:44.074Z,28.79
2023-05-02T07:24:11.279Z,28.70
2023-05-02T07:26:38.824Z,28.05
2023-05-02T07:29:06.930Z,27.40
2023-05-02T07:31:34.205Z,26.29
2023-05-02T07:34:01.474Z,26.99
2023-05-02T07:36:28.742Z,27.42
2023-05-02T07:38:56.006Z,27.83
2023-05-02T07:41:23.236Z,27.41
2023-05-02T07:43:50.460Z,26.85
2023-05-02T07:46:17.829Z,27.34
2023-05-02T07:48:45.425Z,28.84
2023-05-02T07:51:13.632Z,29.22
2023-05-02T07:53:41.065Z,31.45
2023-05-02T07:56:08.982Z,32.65
2023-05-02T07:58:39.447Z,32.14
2023-05-02T08:01:06.695Z,32.13
2023-05-02T08:03:34.230Z,32.17
2023-05-02T08:06:02.285Z,33.37
2023-05-02T08:08:29.742Z,32.40
2023-05-02T08:10:56.892Z,32.67
2023-05-02T08:13:24.188Z,32.39
2023-05-02T08:15:51.498Z,33.03
2023-05-02T08:18:18.860Z,32.70
2023-05-02T08:20:46.403Z,32.77
2023-05-02T08:23:13.663Z,33.88
2023-05-02T08:25:40.977Z,30.86
2023-05-02T08:28:08.187Z,32.40
2023-05-02T08:30:35.502Z,34.30
2023-05-02T08:33:02.823Z,35.37
2023-05-02T08:35:30.433Z,35.20
2023-05-02T08:37:57.694Z,34.85
2023-05-02T08:40:38.262Z,32.21
2023-05-02T08:43:11.022Z,31.45
2023-05-02T08:45:43.435Z,31.07
2023-05-02T08:48:13.886Z,31.26
2023-05-02T08:50:44.646Z,31.83
2023-05-02T08:53:14.522Z,30.49
2023-05-02T08:55:43.040Z,32.90
2023-05-02T08:58:12.139Z,33.58
2023-05-02T09:00:42.890Z,33.78
2023-05-02T09:03:47.005Z,31.69
2023-05-02T09:06:22.912Z,31.39
2023-05-02T09:08:54.663Z,32.52
2023-05-02T09:11:22.330Z,32.18
2023-05-02T09:13:52.457Z,32.40
2023-05-02T09:16:27.269Z,30.33
2023-05-02T09:18:58.158Z,28.70
2023-05-02T09:21:40.358Z,27.69
2023-05-02T09:24:28.174Z,26.86
2023-05-02T09:27:04.553Z,28.23
2023-05-02T09:29:39.105Z,28.88
2023-05-02T09:32:07.372Z,27.69
2023-05-02T09:34:37.418Z,28.59
2023-05-02T09:37:05.684Z,29.95
2023-05-02T09:39:32.929Z,26.97
2023-05-02T09:42:01.241Z,26.48
2023-05-02T09:44:38.097Z,23.77
2023-05-02T09:47:06.913Z,23.63
2023-05-02T09:49:46.134Z,23.89
2023-05-02T09:52:19.899Z,23.45
2023-05-02T09:54:47.629Z,22.41
2023-05-02T09:57:15.066Z,22.56
2023-05-02T09:59:52.994Z,22.38
2023-05-02T10:02:22.115Z,22.76
2023-05-02T10:04:51.774Z,22.45
2023-05-02T10:07:19.501Z,22.83
2023-05-02T10:09:49.755Z,22.29
2023-05-02T10:12:19.556Z,21.35
2023-05-02T10:14:56.973Z,21.34
2023-05-02T10:17:31.671Z,21.22
2023-05-02T10:20:07.558Z,20.75
2023-05-02T10:22:36.224Z,20.60
2023-05-02T10:25:05.109Z,20.74
2023-05-02T10:27:33.178Z,21.00
2023-05-02T10:30:04.479Z,20.95
2023-05-02T10:32:34.878Z,20.57
2023-05-02T10:35:08.158Z,20.47
2023-05-02T10:37:38.766Z,20.50
2023-05-02T10:40:11.733Z,20.86
2023-05-02T10:42:43.949Z,21.13
2023-05-02T10:45:34.581Z,20.93
2023-05-02T10:48:26.211Z,21.31
2023-05-02T10:51:03.897Z,21.75
2023-05-02T10:53:40.399Z,21.87
2023-05-02T10:56:15.171Z,21.81
2023-05-02T10:58:46.607Z,21.93
2023-05-02T11:01:28.989Z,21.47
2023-05-02T11:04:10.845Z,21.50
2023-05-02T11:07:01.312Z,21.45
2023-05-02T11:09:28.555Z,22.10
2023-05-02T11:11:57.614Z,22.15
2023-05-02T11:14:31.118Z,21.86
2023-05-02T11:17:00.963Z,22.04
2023-05-02T11:19:31.435Z,22.02
2023-05-02T11:22:20.888Z,21.91
2023-05-02T11:24:50.534Z,21.16
2023-05-02T11:27:33.648Z,21.39
2023-05-02T11:30:09.793Z,21.68
2023-05-02T11:32:49.797Z,21.54
2023-05-02T11:35:27.477Z,21.08
2023-05-02T11:37:55.152Z,20.83
2023-05-02T11:40:23.786Z,20.85
2023-05-02T11:42:51.204Z,20.84
2023-05-02T11:45:18.930Z,21.00
2023-05-02T11:47:47.568Z,21.29
2023-05-02T11:50:18.684Z,21.47
2023-05-02T11:52:46.281Z,21.11
2023-05-02T11:55:15.959Z,20.61
2023-05-02T11:57:43.670Z,20.48
2023-05-02T12:00:13.053Z,20.94
2023-05-02T12:02:45.908Z,21.09
2023-05-02T12:05:15.180Z,21.62
2023-05-02T12:07:49.450Z,21.43
2023-05-02T12:10:16.951Z,21.72
2023-05-02T12:12:45.053Z,21.93
2023-05-02T12:15:13.467Z,22.21
2023-05-02T12:17:49.470Z,22.18
2023-05-02T12:20:17.599Z,22.14
2023-05-02T12:22:45.706Z,22.13
2023-05-02T12:25:13.244Z,21.05
2023-05-02T12:27:40.569Z,20.87
2023-05-02T12:30:08.870Z,21.09
2023-05-02T12:32:37.215Z,21.67
2023-05-02T12:35:05.374Z,22.24
2023-05-02T12:37:32.665Z,22.44
2023-05-02T12:40:00.116Z,22.73
2023-05-02T12:42:28.530Z,23.07
2023-05-02T12:44:57.041Z,22.61
2023-05-02T12:47:25.121Z,22.61
2023-05-02T12:50:00.522Z,22.17
2023-05-02T12:52:57.607Z,21.67
2023-05-02T12:55:27.941Z,21.27
2023-05-02T12:58:08.653Z,20.73
2023-05-02T13:00:41.749Z,20.10
2023-05-02T13:03:11.167Z,20.60
2023-05-02T13:05:38.724Z,20.95
2023-05-02T13:08:06.312Z,20.96
2023-05-02T13:10:33.852Z,21.01
2023-05-02T13:13:01.736Z,21.46
2023-05-02T13:15:29.572Z,21.44
2023-05-02T13:17:56.996Z,21.82
2023-05-02T13:20:24.414Z,21.86
2023-05-02T13:22:51.830Z,21.77
2023-05-02T13:25:19.314Z,21.75
2023-05-02T13:27:46.718Z,21.99
2023-05-02T13:30:14.510Z,21.06
2023-05-02T13:32:42.094Z,21.15
2023-05-02T13:35:14.046Z,21.45
2023-05-02T13:37:42.018Z,21.65
2023-05-02T13:40:09.817Z,21.78
2023-05-02T13:42:37.097Z,22.02
2023-05-02T13:45:06.647Z,21.25
2023-05-02T13:47:33.922Z,20.63
2023-05-02T13:50:01.671Z,20.58
2023-05-02T13:52:29.154Z,20.26
2023-05-02T13:54:56.457Z,19.66
2023-05-02T13:57:23.770Z,18.77
2023-05-02T13:59:51.849Z,18.05
2023-05-02T14:02:19.105Z,17.62
2023-05-02T14:04:46.401Z,17.40
2023-05-02T14:07:13.726Z,16.67
2023-05-02T14:09:40.911Z,15.68
2023-05-02T14:12:08.355Z,15.14
2023-05-02T14:14:36.215Z,14.99
2023-05-02T14:17:03.937Z,15.28
2023-05-02T14:19:31.210Z,15.41
2023-05-02T14:21:58.827Z,15.89
2023-05-02T14:24:26.128Z,15.96
2023-05-02T14:26:53.379Z,16.13
2023-05-02T14:29:21.380Z,16.40
2023-05-02T14:31:48.673Z,16.60
2023-05-02T14:34:16.054Z,17.00
2023-05-02T14:36:43.315Z,16.78
2023-05-02T14:39:10.794Z,17.02
2023-05-02T14:41:38.261Z,17.01
2023-05-02T14:44:05.660Z,17.26
2023-05-02T14:46:33.028Z,17.31
2023-05-02T14:49:00.650Z,17.28
2023-05-02T14:51:27.892Z,17.33
2023-05-02T14:53:55.128Z,17.12
2023-05-02T14:56:22.492Z,16.92
2023-05-02T14:58:50.201Z,16.85
2023-05-02T15:01:22.475Z,16.79
2023-05-02T15:04:05.136Z,16.11
2023-05-02T15:06:35.596Z,16.07
2023-05-02T15:09:03.707Z,15.98
2023-05-02T15:11:31.753Z,15.97
2023-05-02T15:13:59.747Z,15.86
2023-05-02T15:16:27.613Z,16.12
2023-05-02T15:18:55.977Z,16.26
2023-05-02T15:21:23.374Z,16.03
2023-05-02T15:23:51.189Z,16.32
2023-05-02T15:26:18.446Z,16.21
2023-05-02T15:28:45.994Z,16.28
2023-05-02T15:31:14.101Z,15.95
2023-05-02T15:33:41.626Z,15.64
2023-05-02T15:36:09.553Z,15.67
2023-05-02T15:38:39.766Z,15.44
2023-05-02T15:41:10.087Z,15.52
2023-05-02T15:43:37.924Z,15.41
2023-05-02T15:46:05.458Z,15.72
2023-05-02T15:48:33.619Z,15.84
2023-05-02T15:51:01.725Z,15.70
2023-05-02T15:53:29.611Z,15.60
2023-05-02T15:55:57.223Z,15.42
2023-05-02T15:58:24.604Z,15.28
2023-05-02T16:00:52.686Z,15.48
2023-05-02T16:03:20.285Z,15.37
2023-05-02T16:05:47.673Z,15.54
2023-05-02T16:08:15.068Z,15.62
2023-05-02T16:10:43.640Z,15.76
2023-05-02T16:13:11.626Z,15.94
2023-05-02T16:15:39.739Z,15.96
2023-05-02T16:18:07.187Z,15.80
2023-05-02T16:20:36.828Z,15.52
2023-05-02T16:23:05.080Z,15.49
2023-05-02T16:25:32.794Z,15.63
2023-05-02T16:28:01.110Z,15.49
2023-05-02T16:30:28.598Z,15.47
2023-05-02T16:32:56.106Z,15.48
2023-05-02T16:35:23.549Z,15.44
2023-05-02T16:37:50.852Z,15.37
2023-05-02T16:40:18.738Z,15.23
2023-05-02T16:42:46.681Z,14.98
2023-05-02T16:45:15.355Z,14.92
2023-05-02T16:47:43.358Z,14.93
2023-05-02T16:50:11.291Z,14.85
2023-05-02T16:52:38.668Z,14.82
2023-05-02T16:55:06.817Z,14.82
2023-05-02T16:57:34.439Z,14.71
2023-05-02T17:00:03.385Z,14.76
2023-05-02T17:02:31.056Z,14.61
2023-05-02T17:04:58.456Z,14.68
2023-05-02T17:07:25.868Z,14.77
2023-05-02T17:09:53.725Z,14.64
2023-05-02T17:12:23.806Z,14.56
2023-05-02T17:14:51.741Z,14.63
2023-05-02T17:17:22.828Z,14.54
2023-05-02T17:19:51.501Z,14.67
2023-05-02T17:22:19.335Z,14.73
2023-05-02T17:24:49.573Z,14.37
2023-05-02T17:27:17.166Z,14.43
2023-05-02T17:29:44.691Z,14.34
2023-05-02T17:32:14.800Z,14.32
2023-05-02T17:34:43.595Z,14.03
2023-05-02T17:37:11.108Z,13.79
2023-05-02T17:39:38.654Z,13.73
2023-05-02T17:42:06.047Z,13.65
2023-05-02T17:44:36.500Z,13.61
2023-05-02T17:47:04.950Z,13.87
2023-05-02T17:49:35.526Z,13.80
2023-05-02T17:52:02.664Z,13.48
2023-05-02T17:54:30.304Z,13.54
2023-05-02T17:56:57.498Z,13.52
2023-05-02T17:59:24.993Z,13.54
2023-05-02T18:01:52.707Z,13.56
2023-05-02T18:04:20.798Z,13.65
2023-05-02T18:06:48.249Z,13.70
2023-05-02T18:09:15.656Z,13.83
2023-05-02T18:11:43.989Z,13.90
2023-05-02T18:14:11.352Z,13.87
2023-05-02T18:16:39.477Z,13.67
2023-05-02T18:19:06.974Z,13.57
2023-05-02T18:21:37.680Z,13.39
2023-05-02T18:24:06.158Z,13.47
2023-05-02T18:26:33.584Z,13.51
2023-05-02T18:29:01.056Z,13.59
2023-05-02T18:31:28.433Z,13.59
2023-05-02T18:33:56.120Z,13.19
2023-05-02T18:36:28.918Z,12.96
2023-05-02T18:38:56.556Z,13.19
2023-05-02T18:41:23.877Z,13.27
2023-05-02T18:43:51.204Z,13.03
2023-05-02T18:46:18.929Z,13.06
2023-05-02T18:48:46.431Z,12.84
2023-05-02T18:51:13.973Z,12.79
2023-05-02T18:53:41.287Z,12.66
2023-05-02T18:56:17.613Z,12.60
2023-05-02T18:58:46.191Z,12.74
2023-05-02T19:01:20.293Z,12.97
2023-05-02T19:03:47.945Z,12.89
2023-05-02T19:06:18.835Z,12.85
2023-05-02T19:08:49.811Z,12.96
2023-05-02T19:11:17.280Z,12.87
2023-05-02T19:13:44.543Z,12.79
2023-05-02T19:16:15.155Z,12.83
2023-05-02T19:18:43.534Z,12.89
2023-05-02T19:21:13.637Z,12.93
2023-05-02T19:23:43.179Z,13.01
2023-05-02T19:26:17.758Z,13.10
2023-05-02T19:28:46.576Z,13.20
2023-05-02T19:31:19.811Z,13.25
2023-05-02T19:33:54.904Z,13.31
2023-05-02T19:36:24.220Z,13.27
2023-05-02T19:38:54.107Z,13.38
2023-05-02T19:41:22.482Z,13.41
2023-05-02T19:43:50.576Z,13.27
2023-05-02T19:46:18.987Z,13.10
2023-05-02T19:48:46.491Z,13.13
2023-05-02T19:51:14.097Z,13.07
2023-05-02T19:53:41.603Z,13.00
2023-05-02T19:56:08.944Z,12.97
2023-05-02T19:58:36.366Z,13.09
2023-05-02T20:01:03.872Z,12.95
2023-05-02T20:03:31.473Z,13.07
2023-05-02T20:05:59.106Z,13.17
2023-05-02T20:08:28.029Z,13.26
2023-05-02T20:10:56.695Z,13.11
2023-05-02T20:13:24.372Z,13.10
2023-05-02T20:15:53.610Z,13.01
2023-05-02T20:18:21.393Z,13.00
2023-05-02T20:20:48.858Z,13.08
2023-05-02T20:23:16.288Z,12.98
2023-05-02T20:25:44.059Z,12.89
2023-05-02T20:28:11.726Z,12.85
2023-05-02T20:30:43.936Z,12.94
2023-05-02T20:33:16.186Z,13.09
2023-05-02T20:35:45.442Z,13.04
2023-05-02T20:38:12.939Z,13.09
2023-05-02T20:40:42.644Z,13.05
2023-05-02T20:43:10.050Z,12.94
2023-05-02T20:45:38.791Z,12.92
2023-05-02T20:48:06.581Z,12.84
2023-05-02T20:50:34.094Z,12.94
2023-05-02T20:53:01.508Z,12.80
2023-05-02T20:55:29.003Z,12.79
2023-05-02T20:57:56.624Z,12.96
2023-05-02T21:00:24.131Z,12.82
2023-05-02T21:02:51.454Z,12.39
2023-05-02T21:05:18.787Z,12.40
2023-05-02T21:07:46.563Z,12.29
2023-05-02T21:10:14.101Z,12.40
2023-05-02T21:12:41.417Z,12.59
2023-05-02T21:15:09.188Z,12.65
2023-05-02T21:17:40.933Z,12.57
2023-05-02T21:20:09.995Z,12.37
2023-05-02T21:22:37.348Z,12.36
2023-05-02T21:25:05.070Z,12.24
2023-05-02T21:27:32.517Z,12.21
2023-05-02T21:30:00.204Z,12.29
2023-05-02T21:32:27.827Z,12.30
2023-05-02T21:34:55.032Z,12.30
2023-05-02T21:37:22.927Z,12.56
2023-05-02T21:39:50.270Z,12.53
2023-05-02T21:42:17.653Z,12.38
2023-05-02T21:44:45.114Z,12.43
2023-05-02T21:47:12.498Z,12.41
2023-05-02T21:49:40.147Z,12.42
2023-05-02T21:52:07.834Z,12.58
2023-05-02T21:54:35.242Z,12.62
2023-05-02T21:57:02.837Z,12.79
2023-05-02T21:59:30.173Z,12.77
2023-05-02T22:01:57.713Z,12.59
2023-05-02T22:04:25.077Z,12.48
2023-05-02T22:06:53.006Z,12.34
2023-05-02T22:09:23.597Z,12.30
2023-05-02T22:11:50.989Z,12.38
2023-05-02T22:14:18.197Z,12.33
2023-05-02T22:16:45.442Z,12.38
2023-05-02T22:19:14.657Z,12.50
2023-05-02T22:21:42.226Z,12.59
2023-05-02T22:24:09.701Z,12.40
2023-05-02T22:26:37.074Z,12.58
2023-05-02T22:29:04.924Z,12.54
2023-05-02T22:31:32.250Z,12.48
2023-05-02T22:33:59.567Z,12.52
2023-05-02T22:36:27.881Z,12.54
2023-05-02T22:38:55.199Z,12.67
2023-05-02T22:41:22.428Z,12.65
2023-05-02T22:43:50.371Z,12.48
2023-05-02T22:46:18.605Z,12.54
2023-05-02T22:48:45.913Z,12.49
2023-05-02T22:51:13.701Z,12.56
2023-05-02T22:53:40.961Z,12.54
2023-05-02T22:56:08.423Z,12.62
2023-05-02T22:58:35.665Z,12.54
2023-05-02T23:01:02.909Z,12.32
2023-05-02T23:03:30.205Z,12.16
2023-05-02T23:05:57.467Z,12.17
2023-05-02T23:08:24.658Z,12.11
2023-05-02T23:10:52.192Z,12.05
2023-05-02T23:13:19.577Z,12.17
2023-05-02T23:15:46.969Z,12.17
2023-05-02T23:18:14.441Z,12.26
2023-05-02T23:20:41.804Z,12.30
2023-05-02T23:23:09.103Z,12.26
2023-05-02T23:25:37.161Z,12.16
2023-05-02T23:28:04.796Z,12.27
2023-05-02T23:30:32.625Z,12.26
2023-05-02T23:33:00.979Z,12.26
2023-05-02T23:35:28.285Z,12.32
2023-05-02T23:37:55.597Z,12.33
2023-05-02T23:40:22.891Z,12.37
2023-05-02T23:42:50.111Z,12.41
2023-05-02T23:45:17.571Z,12.37
2023-05-02T23:47:44.839Z,12.30
2023-05-02T23:50:12.518Z,12.29
2023-05-02T23:52:39.828Z,12.14
2023-05-02T23:55:10.914Z,11.82
2023-05-02T23:57:38.358Z,11.78
